Time;durP1;ratioP1;P1;durP2;ratioP2;P2;SDS_P1;SDS_P2;PMS_P1;PMS_P2;Temp;Humidity;BMP_temperature;BMP_pressure;BME280_temperature;BME280_humidity;BME280_pressure;Samples;Min_cycle;Max_cycle;Signal;HPM_P1;HPM_P2
2022/03/17 00:00:09;;;;;;;76.70;33.95;;;3.90;99.90;;;;;;5046398;28;20059;-49
2022/03/17 00:02:38;;;;;;;79.28;36.90;;;3.90;99.90;;;;;;5048053;28;20037;-48
2022/03/17 00:05:08;;;;;;;76.82;34.28;;;3.90;99.90;;;;;;5046207;28;20397;-46
2022/03/17 00:07:34;;;;;;;87.47;38.35;;;3.80;99.90;;;;;;5047945;28;20028;-46
2022/03/17 00:10:00;;;;;;;92.72;41.13;;;3.90;99.90;;;;;;5044046;28;20025;-46
2022/03/17 00:12:26;;;;;;;85.85;38.65;;;3.90;99.90;;;;;;5048172;28;20386;-48
2022/03/17 00:14:52;;;;;;;73.10;34.20;;;3.90;99.90;;;;;;5047830;28;20059;-48
2022/03/17 00:17:18;;;;;;;73.68;34.38;;;3.80;99.90;;;;;;5047501;28;20040;-48
2022/03/17 00:19:44;;;;;;;73.60;34.92;;;3.80;99.90;;;;;;5049542;28;20066;-46
2022/03/17 00:22:09;;;;;;;84.25;38.70;;;3.80;99.90;;;;;;5048347;28;20036;-46
2022/03/17 00:24:36;;;;;;;81.50;35.67;;;3.90;99.90;;;;;;5049992;28;20128;-52
2022/03/17 00:27:03;;;;;;;90.38;39.47;;;3.90;99.90;;;;;;5048176;28;20087;-46
2022/03/17 00:29:29;;;;;;;75.60;35.42;;;3.80;99.90;;;;;;5049550;28;20037;-49
2022/03/17 00:31:54;;;;;;;70.03;33.60;;;3.80;99.90;;;;;;5046284;28;20025;-46
2022/03/17 00:34:20;;;;;;;60.85;28.13;;;3.70;99.90;;;;;;5050315;28;20381;-46
2022/03/17 00:36:47;;;;;;;71.72;32.88;;;3.70;99.90;;;;;;5049944;28;20560;-48
2022/03/17 00:39:13;;;;;;;74.13;32.88;;;3.80;99.90;;;;;;5047760;28;20409;-46
2022/03/17 00:41:38;;;;;;;68.53;33.60;;;3.80;99.90;;;;;;5049922;28;20029;-47
2022/03/17 00:44:04;;;;;;;76.03;33.92;;;3.80;99.90;;;;;;5047762;28;20029;-48
2022/03/17 00:46:30;;;;;;;75.97;36.05;;;3.80;99.90;;;;;;5049659;28;20021;-46
2022/03/17 00:48:55;;;;;;;71.78;32.72;;;3.80;99.90;;;;;;5047894;28;20024;-52
2022/03/17 00:51:21;;;;;;;74.63;34.45;;;3.70;99.90;;;;;;5049387;28;20501;-49
2022/03/17 00:53:46;;;;;;;80.60;35.47;;;3.70;99.90;;;;;;5051800;28;20024;-49
2022/03/17 00:56:12;;;;;;;70.65;33.10;;;3.70;99.90;;;;;;5053719;28;20392;-46
2022/03/17 00:58:38;;;;;;;70.53;34.00;;;3.70;99.90;;;;;;5052574;28;20517;-46
2022/03/17 01:01:04;;;;;;;71.82;34.15;;;3.60;99.90;;;;;;5068807;28;20120;-54
2022/03/17 01:03:29;;;;;;;67.57;29.55;;;3.50;99.90;;;;;;5048199;28;20112;-51
2022/03/17 01:05:55;;;;;;;77.22;35.45;;;3.50;99.90;;;;;;5068575;28;20412;-53
2022/03/17 01:08:20;;;;;;;88.90;41.03;;;3.50;99.90;;;;;;5047890;28;20392;-46
2022/03/17 01:10:46;;;;;;;76.13;35.50;;;3.50;99.90;;;;;;5068632;28;20399;-45
2022/03/17 01:13:11;;;;;;;83.13;38.83;;;3.50;99.90;;;;;;5058511;28;20461;-47
2022/03/17 01:15:37;;;;;;;91.70;38.88;;;3.50;99.90;;;;;;5049992;28;20032;-51
2022/03/17 01:18:02;;;;;;;79.80;34.72;;;3.50;99.90;;;;;;5066160;28;20063;-50
2022/03/17 01:20:29;;;;;;;84.88;39.20;;;3.50;99.90;;;;;;5049944;28;20431;-50
2022/03/17 01:22:55;;;;;;;79.00;35.55;;;3.50;99.90;;;;;;5066548;28;20098;-48
2022/03/17 01:25:20;;;;;;;92.00;42.47;;;3.40;99.90;;;;;;5049203;28;20520;-51
2022/03/17 01:27:46;;;;;;;85.70;37.33;;;3.40;99.90;;;;;;5066432;28;20127;-48
2022/03/17 01:30:12;;;;;;;77.07;34.40;;;3.30;99.90;;;;;;5068811;28;20033;-51
2022/03/17 01:32:38;;;;;;;71.07;33.70;;;3.30;99.90;;;;;;5053694;28;20032;-51
2022/03/17 01:35:07;;;;;;;94.28;41.95;;;3.30;99.90;;;;;;5068770;28;20025;-50
2022/03/17 01:37:33;;;;;;;76.88;36.00;;;3.30;99.90;;;;;;5052171;28;20299;-48
2022/03/17 01:39:58;;;;;;;79.47;37.72;;;3.30;99.90;;;;;;5068916;28;20075;-51
2022/03/17 01:42:24;;;;;;;71.15;35.00;;;3.30;99.90;;;;;;5050642;28;20028;-47
2022/03/17 01:44:50;;;;;;;77.30;35.15;;;3.20;99.90;;;;;;5068949;28;20532;-51
2022/03/17 01:47:28;;;;;;;76.95;34.92;;;3.20;99.90;;;;;;5050269;28;20040;-48
2022/03/17 01:50:03;;;;;;;88.80;36.38;;;3.20;99.90;;;;;;5068844;28;20031;-52
2022/03/17 01:52:28;;;;;;;85.03;37.63;;;3.10;99.90;;;;;;5036665;28;20028;-49
2022/03/17 01:54:54;;;;;;;75.43;34.47;;;3.00;99.90;;;;;;5068532;28;20021;-52
2022/03/17 01:57:22;;;;;;;71.68;34.65;;;3.00;99.90;;;;;;5050322;28;20055;-53
2022/03/17 01:59:48;;;;;;;77.90;32.88;;;3.00;99.90;;;;;;5068741;28;20549;-51
2022/03/17 02:02:14;;;;;;;82.93;37.65;;;3.00;99.90;;;;;;5049619;28;20040;-49
2022/03/17 02:04:41;;;;;;;67.38;33.20;;;3.00;99.90;;;;;;5068747;28;20020;-54
2022/03/17 02:07:07;;;;;;;76.93;37.65;;;3.00;99.90;;;;;;5048575;28;20454;-49
2022/03/17 02:09:34;;;;;;;77.03;35.33;;;3.00;99.90;;;;;;5068517;28;20611;-50
2022/03/17 02:15:00;;;;;;;70.82;32.70;;;2.90;99.90;;;;;;5068879;28;20048;-52
2022/03/17 02:17:30;;;;;;;91.00;40.75;;;2.90;99.90;;;;;;5035874;28;20040;-48
2022/03/17 02:19:56;;;;;;;84.90;38.22;;;2.90;99.90;;;;;;5068587;28;20209;-53
2022/03/17 02:22:22;;;;;;;87.22;39.40;;;2.90;99.90;;;;;;5050614;28;20079;-51
2022/03/17 02:27:42;;;;;;;72.15;34.88;;;2.90;99.90;;;;;;5037805;28;20043;-50
2022/03/17 02:30:09;;;;;;;90.72;43.47;;;2.90;99.90;;;;;;5068317;28;20396;-49
2022/03/17 02:32:36;;;;;;;87.60;39.72;;;2.90;99.90;;;;;;5052199;28;20029;-51
2022/03/17 02:35:05;;;;;;;74.55;36.58;;;2.90;99.90;;;;;;5068158;28;20384;-49
2022/03/17 02:37:30;;;;;;;81.30;37.35;;;2.90;99.90;;;;;;5051611;28;20067;-52
2022/03/17 02:39:56;;;;;;;76.57;35.30;;;2.90;99.90;;;;;;5068150;28;20021;-49
2022/03/17 02:42:21;;;;;;;68.90;33.30;;;2.90;99.90;;;;;;5050605;28;20484;-47
2022/03/17 02:44:48;;;;;;;63.83;32.20;;;2.80;99.90;;;;;;5068470;28;20024;-48
2022/03/17 02:47:14;;;;;;;74.80;34.75;;;2.80;99.90;;;;;;5049448;28;20032;-49
2022/03/17 02:49:40;;;;;;;66.32;31.92;;;2.80;99.90;;;;;;5068383;28;20039;-45
2022/03/17 02:52:06;;;;;;;75.88;35.50;;;2.80;99.90;;;;;;5048478;28;20441;-46
2022/03/17 02:54:31;;;;;;;71.28;32.10;;;2.70;99.90;;;;;;5071904;28;20392;-49
2022/03/17 02:56:57;;;;;;;70.68;33.65;;;2.70;99.90;;;;;;5047325;28;20237;-45
2022/03/17 02:59:22;;;;;;;70.28;33.00;;;2.70;99.90;;;;;;5072089;28;20384;-46
2022/03/17 03:01:48;;;;;;;65.93;32.10;;;2.70;99.90;;;;;;5052186;28;20021;-47
2022/03/17 03:04:16;;;;;;;61.97;30.67;;;2.70;99.90;;;;;;5069010;28;20087;-49
2022/03/17 03:06:42;;;;;;;81.68;36.38;;;2.60;99.90;;;;;;5051948;28;20032;-46
2022/03/17 03:09:07;;;;;;;69.47;32.95;;;2.60;99.90;;;;;;5050338;28;20550;-46
2022/03/17 03:11:33;;;;;;;83.30;39.45;;;2.70;99.90;;;;;;5070974;28;20116;-49
2022/03/17 03:13:58;;;;;;;78.03;36.85;;;2.70;99.90;;;;;;5050172;28;20020;-48
2022/03/17 03:16:24;;;;;;;79.38;38.92;;;2.70;99.90;;;;;;5070551;28;20036;-46
2022/03/17 03:18:49;;;;;;;85.85;40.75;;;2.60;99.90;;;;;;5050355;28;20082;-45
2022/03/17 03:21:15;;;;;;;87.65;37.97;;;2.70;99.90;;;;;;5070373;28;20452;-45
2022/03/17 03:23:40;;;;;;;80.22;38.28;;;2.60;99.90;;;;;;5050118;28;20032;-45
2022/03/17 03:26:06;;;;;;;76.57;35.30;;;2.60;99.90;;;;;;5071102;28;20048;-46
2022/03/17 03:28:31;;;;;;;80.68;34.92;;;2.50;99.90;;;;;;5050170;28;20481;-46
2022/03/17 03:30:57;;;;;;;81.10;40.92;;;2.50;99.90;;;;;;5070305;28;20038;-49
2022/03/17 03:33:22;;;;;;;86.80;40.85;;;2.50;99.90;;;;;;5049768;28;20401;-49
2022/03/17 03:38:33;;;;;;;88.72;40.40;;;2.60;99.90;;;;;;5042996;28;20063;-46
2022/03/17 03:40:59;;;;;;;89.32;40.67;;;2.60;99.90;;;;;;5070430;28;20115;-48
2022/03/17 03:43:25;;;;;;;85.28;42.47;;;2.60;99.90;;;;;;5049365;28;20091;-45
2022/03/17 03:45:51;;;;;;;82.35;38.28;;;2.60;99.90;;;;;;5070339;28;20033;-46
2022/03/17 03:48:16;;;;;;;85.75;38.58;;;2.60;99.90;;;;;;5049579;28;20108;-46
2022/03/17 03:50:42;;;;;;;89.25;39.20;;;2.60;99.90;;;;;;5070019;28;20442;-46
2022/03/17 03:53:07;;;;;;;77.03;36.75;;;2.60;99.90;;;;;;5059977;28;20035;-47
2022/03/17 03:55:33;;;;;;;75.30;35.97;;;2.50;99.90;;;;;;5046440;28;20116;-46
2022/03/17 03:57:59;;;;;;;92.47;41.95;;;2.50;99.90;;;;;;5068839;28;20036;-48
2022/03/17 04:02:51;;;;;;;88.88;42.85;;;2.50;99.90;;;;;;5068040;28;20123;-46
2022/03/17 04:05:18;;;;;;;89.03;39.83;;;2.50;99.90;;;;;;5050104;28;20033;-50
2022/03/17 04:07:44;;;;;;;83.38;42.55;;;2.50;99.90;;;;;;5067878;28;20044;-48
2022/03/17 04:10:09;;;;;;;87.68;41.97;;;2.50;99.90;;;;;;5070540;28;20074;-49
2022/03/17 04:12:34;;;;;;;78.85;39.17;;;2.60;99.90;;;;;;5054836;28;20033;-46
2022/03/17 04:15:00;;;;;;;91.45;40.92;;;2.60;99.90;;;;;;5070558;28;20507;-45
2022/03/17 04:17:26;;;;;;;90.20;41.83;;;2.60;99.90;;;;;;5053319;28;20123;-47
2022/03/17 04:19:52;;;;;;;90.90;45.15;;;2.60;99.90;;;;;;5049127;28;20104;-47
2022/03/17 04:22:17;;;;;;;91.28;44.83;;;2.60;99.90;;;;;;5068876;28;20464;-47
2022/03/17 04:24:42;;;;;;;85.32;43.05;;;2.60;99.90;;;;;;5057064;28;20052;-47
2022/03/17 04:27:08;;;;;;;97.93;47.13;;;2.60;99.90;;;;;;5050694;28;20382;-48
2022/03/17 04:29:34;;;;;;;100.18;44.97;;;2.60;99.90;;;;;;5050691;28;20025;-50
2022/03/17 04:31:59;;;;;;;96.82;45.28;;;2.60;99.90;;;;;;5069240;28;20115;-46
2022/03/17 04:34:25;;;;;;;88.82;43.95;;;2.60;99.90;;;;;;5048683;28;20043;-46
2022/03/17 04:36:50;;;;;;;90.80;42.13;;;2.60;99.90;;;;;;5068886;28;20230;-46
2022/03/17 04:39:16;;;;;;;92.35;46.33;;;2.60;99.90;;;;;;5048599;28;20041;-47
2022/03/17 04:41:42;;;;;;;101.97;45.60;;;2.60;99.90;;;;;;5069010;28;20033;-49
2022/03/17 04:44:08;;;;;;;94.80;45.95;;;2.60;99.90;;;;;;5048621;28;20171;-50
2022/03/17 04:46:34;;;;;;;99.68;46.10;;;2.60;99.90;;;;;;5069261;28;20056;-50
2022/03/17 04:48:59;;;;;;;101.35;44.67;;;2.60;99.90;;;;;;5048300;28;20025;-49
2022/03/17 04:51:25;;;;;;;87.20;42.80;;;2.50;99.90;;;;;;5069256;28;20025;-48
2022/03/17 04:53:51;;;;;;;102.80;48.92;;;2.50;99.90;;;;;;5058774;28;20042;-46
2022/03/17 04:56:17;;;;;;;98.50;47.88;;;2.50;99.90;;;;;;5052053;28;20029;-48
2022/03/17 04:58:44;;;;;;;98.32;45.50;;;2.50;99.90;;;;;;5055472;28;20047;-46
2022/03/17 05:01:11;;;;;;;82.22;39.65;;;2.50;99.90;;;;;;5069617;28;20111;-46
2022/03/17 05:03:37;;;;;;;88.75;44.10;;;2.50;99.90;;;;;;5063609;28;20078;-48
2022/03/17 05:06:03;;;;;;;91.50;41.60;;;2.50;99.90;;;;;;5069472;28;20024;-50
2022/03/17 05:08:29;;;;;;;94.05;44.60;;;2.50;99.90;;;;;;5048235;28;20381;-46
2022/03/17 05:10:55;;;;;;;99.32;43.53;;;2.50;99.90;;;;;;5068660;28;20070;-46
2022/03/17 05:13:22;;;;;;;87.78;41.70;;;2.60;99.90;;;;;;5048132;28;20500;-47
2022/03/17 05:15:48;;;;;;;79.82;40.58;;;2.50;99.90;;;;;;5068817;28;20086;-46
2022/03/17 05:18:14;;;;;;;102.50;49.28;;;2.50;99.90;;;;;;5047894;28;20463;-46
2022/03/17 05:20:40;;;;;;;86.07;41.22;;;2.50;99.90;;;;;;5068741;28;20086;-47
2022/03/17 05:23:11;;;;;;;95.93;46.20;;;2.50;99.90;;;;;;5047687;28;20029;-46
2022/03/17 05:25:38;;;;;;;81.88;40.33;;;2.50;99.90;;;;;;5068686;28;20053;-45
2022/03/17 05:28:04;;;;;;;88.80;45.28;;;2.50;99.90;;;;;;5047761;28;20041;-45
2022/03/17 05:30:30;;;;;;;94.47;43.72;;;2.50;99.90;;;;;;5068605;28;20492;-48
2022/03/17 05:32:56;;;;;;;95.28;42.10;;;2.50;99.90;;;;;;5047723;28;20037;-46
2022/03/17 05:35:22;;;;;;;94.32;43.25;;;2.50;99.90;;;;;;5068375;28;20025;-47
2022/03/17 05:37:50;;;;;;;88.05;42.92;;;2.50;99.90;;;;;;5058012;28;20526;-45
2022/03/17 05:40:18;;;;;;;101.68;47.85;;;2.50;99.90;;;;;;5049207;28;20029;-46
2022/03/17 05:42:45;;;;;;;91.20;41.20;;;2.60;99.90;;;;;;5066750;28;20033;-46
2022/03/17 05:45:11;;;;;;;99.43;46.83;;;2.60;99.90;;;;;;5049084;28;20025;-47
2022/03/17 05:47:42;;;;;;;96.18;46.10;;;2.60;99.90;;;;;;5066386;28;20036;-45
2022/03/17 05:50:10;;;;;;;94.88;42.63;;;2.60;99.90;;;;;;5048839;28;20108;-45
2022/03/17 05:52:38;;;;;;;83.97;42.85;;;2.60;99.90;;;;;;5066317;28;20033;-46
2022/03/17 05:55:05;;;;;;;97.13;46.55;;;2.70;99.90;;;;;;5067382;28;20032;-45
2022/03/17 05:57:31;;;;;;;92.13;43.97;;;2.70;99.90;;;;;;5068424;28;20127;-49
2022/03/17 05:59:56;;;;;;;99.40;46.78;;;2.70;99.90;;;;;;5047596;28;20191;-45
2022/03/17 06:02:22;;;;;;;98.65;47.92;;;2.80;99.90;;;;;;5067968;28;20028;-46
2022/03/17 06:04:47;;;;;;;95.38;45.85;;;2.80;99.90;;;;;;5047606;28;20082;-45
2022/03/17 06:07:13;;;;;;;97.65;48.28;;;2.90;99.90;;;;;;5067899;28;20025;-45
2022/03/17 06:09:38;;;;;;;96.57;45.63;;;2.90;99.90;;;;;;5047261;28;20067;-46
2022/03/17 06:12:06;;;;;;;99.15;45.13;;;2.90;99.90;;;;;;5068194;28;20064;-45
2022/03/17 06:14:32;;;;;;;94.25;46.38;;;2.90;99.90;;;;;;5046988;28;20032;-45
2022/03/17 06:16:58;;;;;;;86.53;42.75;;;3.00;99.90;;;;;;5057113;28;20538;-47
2022/03/17 06:20:03;;;;;;;95.88;44.92;;;3.00;99.90;;;;;;5067725;28;20067;-46
2022/03/17 06:23:29;;;;;;;88.80;43.42;;;3.00;99.90;;;;;;5049218;28;20033;-45
2022/03/17 06:26:54;;;;;;;72.55;35.20;;;3.10;99.90;;;;;;5050067;28;20044;-46
2022/03/17 06:30:20;;;;;;;92.63;44.72;;;3.10;99.90;;;;;;5066669;28;20051;-46
2022/03/17 06:33:45;;;;;;;89.65;43.28;;;3.10;99.90;;;;;;5052347;28;20523;-46
2022/03/17 06:37:10;;;;;;;95.65;47.72;;;3.20;99.90;;;;;;5056187;28;20037;-48
2022/03/17 06:40:36;;;;;;;93.03;45.78;;;3.30;99.90;;;;;;5057251;28;20060;-45
2022/03/17 06:44:01;;;;;;;96.85;51.83;;;3.30;99.90;;;;;;5058106;28;20029;-49
2022/03/17 06:47:26;;;;;;;102.07;49.92;;;3.40;99.90;;;;;;5063388;28;20463;-44
2022/03/17 06:50:52;;;;;;;97.32;48.47;;;3.40;99.90;;;;;;5053869;28;20086;-51
2022/03/17 06:54:17;;;;;;;100.15;49.78;;;3.50;99.90;;;;;;5062316;28;20066;-45
2022/03/17 06:57:43;;;;;;;102.60;49.45;;;3.60;99.90;;;;;;5052610;28;20029;-46
2022/03/17 07:01:08;;;;;;;89.60;46.65;;;3.70;99.90;;;;;;5054819;28;20040;-46
2022/03/17 07:04:33;;;;;;;105.28;52.40;;;3.80;99.90;;;;;;5066655;28;20495;-49
2022/03/17 07:07:59;;;;;;;104.15;52.15;;;3.90;99.90;;;;;;5047130;28;20033;-49
2022/03/17 07:11:24;;;;;;;108.18;55.28;;;3.90;99.90;;;;;;5065621;28;20086;-49
2022/03/17 07:14:50;;;;;;;111.13;55.97;;;4.00;99.90;;;;;;5065739;28;20033;-48
2022/03/17 07:18:15;;;;;;;109.07;56.10;;;4.10;99.90;;;;;;5063734;28;20091;-48
2022/03/17 07:21:40;;;;;;;107.30;53.40;;;4.20;99.90;;;;;;5067682;28;20104;-46
2022/03/17 07:24:25;;;;;;;109.32;54.38;;;4.30;99.90;;;;;;5058638;28;20044;-48
2022/03/17 07:26:51;;;;;;;107.45;56.35;;;4.30;99.90;;;;;;5051112;28;20036;-49
2022/03/17 07:29:16;;;;;;;100.50;53.40;;;4.40;99.90;;;;;;5069459;28;20684;-46
2022/03/17 07:31:43;;;;;;;107.93;58.33;;;4.50;99.90;;;;;;5071338;28;20085;-47
2022/03/17 07:34:08;;;;;;;105.53;57.10;;;4.50;99.90;;;;;;5050927;28;20028;-46
2022/03/17 07:36:34;;;;;;;106.72;56.97;;;4.60;99.90;;;;;;5071016;28;20081;-50
2022/03/17 07:39:03;;;;;;;105.00;56.40;;;4.70;99.90;;;;;;5048359;28;20033;-48
2022/03/17 07:41:29;;;;;;;104.78;56.72;;;4.70;99.90;;;;;;5071122;28;20032;-46
2022/03/17 07:43:55;;;;;;;108.32;56.97;;;4.80;99.90;;;;;;5051559;28;20025;-45
2022/03/17 07:46:20;;;;;;;110.00;59.55;;;4.80;99.90;;;;;;5068372;28;20021;-50
2022/03/17 07:48:46;;;;;;;109.63;60.28;;;4.90;99.90;;;;;;5051372;28;20032;-46
2022/03/17 07:51:11;;;;;;;123.43;65.13;;;5.00;99.90;;;;;;5049630;28;20033;-50
2022/03/17 07:53:38;;;;;;;120.47;65.05;;;5.00;99.90;;;;;;5070201;28;20024;-52
2022/03/17 07:56:05;;;;;;;110.82;59.72;;;5.00;99.90;;;;;;5049110;28;20025;-47
2022/03/17 07:58:32;;;;;;;115.57;63.30;;;5.10;99.90;;;;;;5069719;28;20042;-46
2022/03/17 08:01:00;;;;;;;112.00;60.53;;;5.10;99.90;;;;;;5049181;28;20588;-47
2022/03/17 08:03:26;;;;;;;119.15;63.63;;;5.10;99.90;;;;;;5069883;28;20029;-43
2022/03/17 08:05:52;;;;;;;110.32;56.95;;;5.20;99.90;;;;;;5048820;28;20027;-44
2022/03/17 08:08:18;;;;;;;101.18;57.28;;;5.30;99.90;;;;;;5069587;28;20028;-47
2022/03/17 08:10:44;;;;;;;111.43;60.28;;;5.50;99.90;;;;;;5048808;28;20039;-43
2022/03/17 08:13:11;;;;;;;112.88;61.90;;;5.50;99.90;;;;;;5069567;28;20504;-46
2022/03/17 08:15:37;;;;;;;105.43;55.58;;;5.60;99.90;;;;;;5048943;28;20029;-45
2022/03/17 08:18:04;;;;;;;106.82;59.33;;;5.80;99.90;;;;;;5069277;28;20032;-46
2022/03/17 08:20:30;;;;;;;110.25;59.28;;;5.90;99.90;;;;;;5048703;28;20040;-46
2022/03/17 08:22:56;;;;;;;112.90;61.08;;;6.00;99.90;;;;;;5069370;28;20089;-47
2022/03/17 08:25:22;;;;;;;113.18;61.67;;;6.10;99.90;;;;;;5048563;28;20045;-47
2022/03/17 08:27:50;;;;;;;112.43;62.58;;;6.20;99.90;;;;;;5062824;28;20038;-47
2022/03/17 08:30:15;;;;;;;124.35;63.85;;;6.40;99.90;;;;;;5058726;28;20039;-46
2022/03/17 08:32:41;;;;;;;107.60;59.40;;;6.50;99.90;;;;;;5050570;28;20029;-45
2022/03/17 08:35:07;;;;;;;106.30;59.15;;;6.70;99.90;;;;;;5066767;28;20024;-47
2022/03/17 08:37:39;;;;;;;117.20;64.50;;;6.90;99.90;;;;;;5050159;28;20049;-46
2022/03/17 08:40:05;;;;;;;110.05;63.00;;;6.90;99.90;;;;;;5067898;28;20496;-46
2022/03/17 08:42:31;;;;;;;102.60;61.63;;;7.00;99.90;;;;;;5050240;28;20029;-52
2022/03/17 08:44:56;;;;;;;101.55;58.88;;;7.10;99.90;;;;;;5067135;28;20030;-47
2022/03/17 08:50:06;;;;;;;98.30;55.88;;;7.30;99.90;;;;;;5046190;28;20526;-46
2022/03/17 08:52:32;;;;;;;93.57;55.63;;;7.40;99.90;;;;;;5049975;28;20171;-47
2022/03/17 08:54:58;;;;;;;103.18;56.75;;;7.40;99.90;;;;;;5066733;28;20063;-50
2022/03/17 08:57:23;;;;;;;109.90;61.72;;;7.40;99.90;;;;;;5049884;28;20520;-47
2022/03/17 08:59:49;;;;;;;100.18;58.25;;;7.30;99.90;;;;;;5066665;28;20052;-46
2022/03/17 09:02:15;;;;;;;100.88;59.20;;;7.40;99.90;;;;;;5069088;28;20120;-48
2022/03/17 09:04:40;;;;;;;110.53;62.67;;;7.50;99.90;;;;;;5053818;28;20047;-47
2022/03/17 09:07:07;;;;;;;102.30;59.55;;;7.40;99.90;;;;;;5068888;28;20025;-50
2022/03/17 09:09:34;;;;;;;105.18;60.35;;;7.40;99.90;;;;;;5052501;28;20086;-49
2022/03/17 09:12:04;;;;;;;107.00;59.90;;;7.40;99.90;;;;;;5069418;28;20020;-46
2022/03/17 09:14:30;;;;;;;95.43;55.88;;;7.40;99.90;;;;;;5036230;28;20056;-48
2022/03/17 09:16:56;;;;;;;101.68;60.08;;;7.50;99.90;;;;;;5069135;28;20028;-47
2022/03/17 09:19:21;;;;;;;100.32;57.83;;;7.60;99.90;;;;;;5050827;28;20079;-48
2022/03/17 09:21:48;;;;;;;106.78;61.78;;;7.70;99.90;;;;;;5068966;28;20159;-46
2022/03/17 09:24:13;;;;;;;98.90;57.72;;;7.80;99.90;;;;;;5049829;28;20040;-46
2022/03/17 09:26:39;;;;;;;95.53;56.78;;;7.80;99.90;;;;;;5047198;28;20017;-46
2022/03/17 09:29:05;;;;;;;105.10;58.95;;;7.90;99.90;;;;;;5066892;28;20039;-47
2022/03/17 09:31:31;;;;;;;87.22;52.78;;;8.00;99.90;;;;;;5068647;28;20500;-46
2022/03/17 09:33:57;;;;;;;95.70;55.08;;;8.10;99.90;;;;;;5049247;28;20031;-48
2022/03/17 09:36:23;;;;;;;92.65;53.75;;;8.20;99.90;;;;;;5048769;28;20493;-51
2022/03/17 09:41:35;;;;;;;97.72;55.38;;;8.30;99.90;;;;;;5029231;28;20091;-48
2022/03/17 09:44:02;;;;;;;94.72;55.08;;;8.30;99.90;;;;;;5065797;28;20039;-47
2022/03/17 09:46:29;;;;;;;98.68;58.97;;;8.40;99.90;;;;;;5068448;28;20500;-46
2022/03/17 09:48:55;;;;;;;93.82;54.90;;;8.40;99.90;;;;;;5049098;28;20029;-50
2022/03/17 09:51:23;;;;;;;95.55;57.30;;;8.50;99.90;;;;;;5066056;28;20492;-47
2022/03/17 09:53:53;;;;;;;101.35;56.00;;;8.50;99.90;;;;;;5048634;28;20115;-47
2022/03/17 09:56:23;;;;;;;91.78;53.15;;;8.40;99.90;;;;;;5047016;28;20071;-48
2022/03/17 09:58:50;;;;;;;87.55;49.78;;;8.60;99.90;;;;;;5068218;28;20041;-47
2022/03/17 10:01:17;;;;;;;83.47;51.22;;;8.60;99.90;;;;;;5046453;28;20508;-46
2022/03/17 10:03:43;;;;;;;92.15;53.78;;;8.70;99.90;;;;;;5067325;28;20070;-51
2022/03/17 10:06:10;;;;;;;94.65;56.38;;;8.70;99.90;;;;;;5047204;28;20370;-47
2022/03/17 10:08:38;;;;;;;98.63;58.67;;;8.60;99.90;;;;;;5067841;28;20028;-51
2022/03/17 10:11:04;;;;;;;89.22;54.30;;;8.60;99.90;;;;;;5046850;28;20142;-51
2022/03/17 10:13:29;;;;;;;98.07;57.33;;;8.50;99.90;;;;;;5067649;28;20503;-46
2022/03/17 10:16:19;;;;;;;91.43;54.45;;;8.50;99.90;;;;;;5046951;28;20036;-46
2022/03/17 10:18:46;;;;;;;109.13;62.00;;;8.60;99.90;;;;;;5028268;28;20033;-46
2022/03/17 10:21:25;;;;;;;96.45;54.60;;;8.60;99.90;;;;;;5046867;28;20033;-48
2022/03/17 10:23:59;;;;;;;101.53;58.58;;;8.60;99.90;;;;;;5030892;28;20277;-46
2022/03/17 10:26:50;;;;;;;92.97;55.38;;;8.60;99.90;;;;;;5028135;28;20056;-47
2022/03/17 10:29:20;;;;;;;94.03;56.90;;;8.60;99.90;;;;;;5066062;28;20029;-46
2022/03/17 10:32:05;;;;;;;101.60;57.88;;;8.70;99.90;;;;;;5068156;28;20024;-49
2022/03/17 10:34:47;;;;;;;95.80;56.65;;;8.70;99.90;;;;;;5035443;28;20020;-47
2022/03/17 10:37:15;;;;;;;101.28;59.38;;;8.80;99.90;;;;;;5067797;28;20415;-46
2022/03/17 10:39:44;;;;;;;96.22;55.90;;;8.90;99.90;;;;;;5052380;28;20029;-49
2022/03/17 10:42:21;;;;;;;98.97;55.67;;;9.00;99.90;;;;;;5068340;28;20044;-47
2022/03/17 10:44:52;;;;;;;90.97;53.60;;;9.10;99.90;;;;;;5039915;28;20093;-46
2022/03/17 10:47:29;;;;;;;91.45;56.28;;;9.10;99.90;;;;;;5068285;28;20392;-47
2022/03/17 10:50:00;;;;;;;83.88;51.35;;;9.10;99.90;;;;;;5041740;28;20139;-46
2022/03/17 10:52:41;;;;;;;92.38;56.50;;;9.20;99.90;;;;;;5048629;28;20110;-46
2022/03/17 10:55:12;;;;;;;90.53;54.22;;;9.30;99.90;;;;;;5045166;28;20056;-46
2022/03/17 10:57:38;;;;;;;110.75;59.67;;;9.50;99.90;;;;;;5047903;28;20037;-47
2022/03/17 11:00:09;;;;;;;100.30;61.72;;;9.50;99.90;;;;;;5065356;28;20024;-46
2022/03/17 11:02:37;;;;;;;88.00;53.08;;;9.50;99.90;;;;;;5028309;28;20124;-47
2022/03/17 11:05:06;;;;;;;84.65;49.72;;;9.50;99.90;;;;;;5065071;28;20044;-46
2022/03/17 11:07:32;;;;;;;92.15;54.67;;;9.60;99.90;;;;;;5047671;28;20532;-46
2022/03/17 11:10:05;;;;;;;86.75;51.53;;;9.60;99.90;;;;;;5065303;28;20027;-46
2022/03/17 11:12:30;;;;;;;88.88;53.60;;;9.70;99.90;;;;;;5028173;28;20033;-49
2022/03/17 11:14:56;;;;;;;91.65;56.50;;;9.70;99.90;;;;;;5067521;28;20343;-47
2022/03/17 11:17:27;;;;;;;86.47;54.25;;;9.70;99.90;;;;;;5051622;28;20044;-47
2022/03/17 11:20:03;;;;;;;86.68;55.03;;;9.70;99.90;;;;;;5056976;28;20032;-50
2022/03/17 11:22:32;;;;;;;86.75;56.35;;;9.80;99.90;;;;;;5031251;28;20103;-44
2022/03/17 11:25:31;;;;;;;87.15;53.40;;;9.80;99.90;;;;;;5057944;28;20524;-44
2022/03/17 11:27:58;;;;;;;90.15;54.85;;;9.80;99.60;;;;;;5018011;28;20041;-47
2022/03/17 11:30:29;;;;;;;91.15;54.45;;;9.90;99.90;;;;;;5056617;28;20466;-46
2022/03/17 11:32:56;;;;;;;94.38;58.55;;;10.00;99.90;;;;;;5031192;28;20033;-46
2022/03/17 11:35:25;;;;;;;79.47;49.08;;;10.10;98.40;;;;;;5056509;28;20024;-44
2022/03/17 11:38:15;;;;;;;90.20;54.08;;;10.10;98.30;;;;;;5070597;28;20094;-48
2022/03/17 11:41:16;;;;;;;90.25;56.83;;;10.30;94.80;;;;;;5057170;28;20563;-46
2022/03/17 11:43:44;;;;;;;87.93;54.38;;;10.30;94.30;;;;;;5051220;28;20037;-46
2022/03/17 11:46:15;;;;;;;90.40;55.17;;;10.30;96.90;;;;;;5050442;28;20075;-44
2022/03/17 11:48:42;;;;;;;88.38;54.90;;;10.50;93.40;;;;;;5030762;28;20037;-58
2022/03/17 11:51:10;;;;;;;97.65;57.85;;;10.50;92.60;;;;;;5049789;28;20178;-59
2022/03/17 11:53:52;;;;;;;84.57;53.75;;;10.60;93.20;;;;;;5070246;28;20056;-59
2022/03/17 11:56:33;;;;;;;94.72;57.15;;;10.70;92.70;;;;;;5047942;28;20388;-58
2022/03/17 11:58:58;;;;;;;86.97;53.63;;;10.70;90.60;;;;;;5068069;28;20497;-57
2022/03/17 12:01:34;;;;;;;94.15;57.72;;;10.80;90.50;;;;;;5030445;28;20056;-58
2022/03/17 12:04:00;;;;;;;90.30;57.58;;;10.70;89.40;;;;;;5068317;28;20073;-59
2022/03/17 12:06:32;;;;;;;94.55;55.58;;;10.90;92.00;;;;;;5070127;28;20027;-59
2022/03/17 12:09:11;;;;;;;99.60;63.60;;;11.00;89.50;;;;;;5050471;28;20033;-59
2022/03/17 12:11:44;;;;;;;86.80;55.42;;;11.10;86.80;;;;;;5050373;28;20075;-59
2022/03/17 12:14:22;;;;;;;87.28;53.38;;;11.20;83.40;;;;;;5068015;28;20028;-58
2022/03/17 12:16:53;;;;;;;86.93;52.13;;;11.20;84.50;;;;;;5070415;28;20384;-59
2022/03/17 12:19:32;;;;;;;94.25;55.78;;;11.20;80.80;;;;;;5033981;28;20028;-58
2022/03/17 12:21:57;;;;;;;83.57;52.40;;;11.20;80.00;;;;;;5070230;28;20023;-59
2022/03/17 12:24:47;;;;;;;87.60;53.03;;;11.20;83.20;;;;;;5050723;28;20045;-59
2022/03/17 12:27:13;;;;;;;86.97;54.65;;;11.20;81.50;;;;;;5069231;28;20032;-59
2022/03/17 12:29:40;;;;;;;88.60;54.28;;;11.10;80.00;;;;;;5053998;28;20035;-58
2022/03/17 12:32:14;;;;;;;81.03;51.33;;;11.20;86.50;;;;;;5070221;28;20347;-57
2022/03/17 12:34:44;;;;;;;84.60;52.45;;;11.30;85.00;;;;;;5039860;28;20048;-58
2022/03/17 12:37:10;;;;;;;80.70;50.50;;;11.20;81.20;;;;;;5069808;28;20021;-58
2022/03/17 12:39:36;;;;;;;81.13;51.67;;;11.20;83.40;;;;;;5053605;28;20024;-58
2022/03/17 12:42:13;;;;;;;84.82;49.78;;;11.10;84.10;;;;;;5069903;28;20056;-58
2022/03/17 12:44:53;;;;;;;79.28;48.75;;;11.20;89.10;;;;;;5038867;28;20388;-58
2022/03/17 12:47:20;;;;;;;76.15;47.67;;;11.30;87.90;;;;;;5069494;28;20013;-58
2022/03/17 12:49:47;;;;;;;74.30;45.28;;;11.40;84.40;;;;;;5054631;28;20317;-60
2022/03/17 12:52:20;;;;;;;92.35;58.40;;;11.40;80.80;;;;;;5069799;28;20029;-58
2022/03/17 12:54:46;;;;;;;90.85;56.03;;;11.50;80.00;;;;;;5054052;28;20366;-58
2022/03/17 12:57:12;;;;;;;79.38;49.97;;;11.50;80.80;;;;;;5069133;28;20035;-58
2022/03/17 12:59:37;;;;;;;84.90;54.25;;;11.50;77.30;;;;;;5053490;28;20024;-58
2022/03/17 13:02:05;;;;;;;93.43;54.08;;;11.50;73.30;;;;;;5069489;28;20029;-58
2022/03/17 13:04:31;;;;;;;82.63;50.00;;;11.50;73.60;;;;;;5051774;28;20031;-58
2022/03/17 13:06:57;;;;;;;83.78;47.25;;;11.60;72.10;;;;;;5046386;28;20025;-58
2022/03/17 13:10:08;;;;;;;83.50;51.78;;;11.70;71.80;;;;;;5052700;28;20388;-58